sensor_id;sensor_type;location;lat;lon;timestamp;pressure;altitude;pressure_sealevel;temperature;humidity
74921;BME280;63483;47.384;8.860;2024-02-15T00:02:04;95150.50;;;5.06;48.15
74921;BME280;63483;47.384;8.860;2024-02-15T00:04:29;95148.88;;;5.05;48.12
74921;BME280;63483;47.384;8.860;2024-02-15T00:06:55;95158.28;;;5.06;47.68
74921;BME280;63483;47.384;8.860;2024-02-15T00:09:20;95154.06;;;5.05;47.66
74921;BME280;63483;47.384;8.860;2024-02-15T00:11:46;95163.88;;;5.02;47.61
74921;BME280;63483;47.384;8.860;2024-02-15T00:14:11;95154.59;;;4.99;47.89
74921;BME280;63483;47.384;8.860;2024-02-15T00:16:37;95162.50;;;4.98;47.66
74921;BME280;63483;47.384;8.860;2024-02-15T00:19:02;95159.09;;;4.97;47.76
74921;BME280;63483;47.384;8.860;2024-02-15T00:21:28;95162.75;;;4.94;47.46
74921;BME280;63483;47.384;8.860;2024-02-15T00:23:53;95157.00;;;4.91;47.43
74921;BME280;63483;47.384;8.860;2024-02-15T00:26:21;95155.88;;;4.84;47.75
74921;BME280;63483;47.384;8.860;2024-02-15T00:28:46;95161.59;;;4.77;48.00
74921;BME280;63483;47.384;8.860;2024-02-15T00:31:12;95168.56;;;4.77;47.87
74921;BME280;63483;47.384;8.860;2024-02-15T00:33:37;95163.88;;;4.71;47.70
74921;BME280;63483;47.384;8.860;2024-02-15T00:36:04;95163.19;;;4.69;47.79
74921;BME280;63483;47.384;8.860;2024-02-15T00:38:31;95167.56;;;4.68;47.55
74921;BME280;63483;47.384;8.860;2024-02-15T00:40:56;95167.72;;;4.67;47.71
74921;BME280;63483;47.384;8.860;2024-02-15T00:43:22;95172.06;;;4.66;47.63
74921;BME280;63483;47.384;8.860;2024-02-15T00:45:47;95173.03;;;4.65;47.66
74921;BME280;63483;47.384;8.860;2024-02-15T00:48:13;95167.84;;;4.65;47.32
74921;BME280;63483;47.384;8.860;2024-02-15T00:50:38;95172.19;;;4.65;47.08
74921;BME280;63483;47.384;8.860;2024-02-15T00:53:04;95173.53;;;4.59;47.14
74921;BME280;63483;47.384;8.860;2024-02-15T00:55:30;95164.25;;;4.56;47.11
74921;BME280;63483;47.384;8.860;2024-02-15T00:57:55;95155.22;;;4.51;46.62
74921;BME280;63483;47.384;8.860;2024-02-15T01:00:21;95159.25;;;4.43;46.95
74921;BME280;63483;47.384;8.860;2024-02-15T01:02:46;95159.53;;;4.40;47.07
74921;BME280;63483;47.384;8.860;2024-02-15T01:05:11;95158.00;;;4.38;47.29
74921;BME280;63483;47.384;8.860;2024-02-15T01:07:40;95164.13;;;4.37;47.05
74921;BME280;63483;47.384;8.860;2024-02-15T01:10:06;95161.66;;;4.35;47.08
74921;BME280;63483;47.384;8.860;2024-02-15T01:12:32;95169.56;;;4.34;47.57
74921;BME280;63483;47.384;8.860;2024-02-15T01:14:58;95164.25;;;4.04;47.45
74921;BME280;63483;47.384;8.860;2024-02-15T01:17:23;95161.69;;;3.17;43.95
74921;BME280;63483;47.384;8.860;2024-02-15T01:19:49;95162.59;;;2.38;43.84
74921;BME280;63483;47.384;8.860;2024-02-15T01:22:14;95163.91;;;1.86;43.99
74921;BME280;63483;47.384;8.860;2024-02-15T01:24:39;95167.44;;;1.36;43.80
74921;BME280;63483;47.384;8.860;2024-02-15T01:27:05;95168.75;;;0.94;44.18
74921;BME280;63483;47.384;8.860;2024-02-15T01:29:32;95173.34;;;0.64;45.35
74921;BME280;63483;47.384;8.860;2024-02-15T01:31:58;95171.09;;;0.97;56.63
74921;BME280;63483;47.384;8.860;2024-02-15T01:34:23;95184.88;;;0.59;50.13
74921;BME280;63483;47.384;8.860;2024-02-15T01:36:48;95169.13;;;0.25;47.99
74921;BME280;63483;47.384;8.860;2024-02-15T01:39:15;95158.28;;;-0.06;47.82
74921;BME280;63483;47.384;8.860;2024-02-15T01:41:46;95161.56;;;-0.30;48.06
74921;BME280;63483;47.384;8.860;2024-02-15T01:44:12;95159.50;;;-0.38;49.12
74921;BME280;63483;47.384;8.860;2024-02-15T01:46:38;95158.19;;;-0.58;47.91
74921;BME280;63483;47.384;8.860;2024-02-15T01:49:03;95157.88;;;-0.66;48.44
74921;BME280;63483;47.384;8.860;2024-02-15T01:51:31;95156.72;;;-0.75;48.09
74921;BME280;63483;47.384;8.860;2024-02-15T01:53:58;95153.69;;;-0.81;47.96
74921;BME280;63483;47.384;8.860;2024-02-15T01:56:24;95150.59;;;-0.87;48.80
74921;BME280;63483;47.384;8.860;2024-02-15T01:58:50;95156.00;;;-0.64;48.72
74921;BME280;63483;47.384;8.860;2024-02-15T02:01:16;95151.31;;;-0.57;48.16
74921;BME280;63483;47.384;8.860;2024-02-15T02:03:43;95157.22;;;-0.42;46.96
74921;BME280;63483;47.384;8.860;2024-02-15T02:06:09;95142.09;;;-0.34;47.65
74921;BME280;63483;47.384;8.860;2024-02-15T02:08:34;95150.66;;;-0.08;47.58
74921;BME280;63483;47.384;8.860;2024-02-15T02:10:59;95150.69;;;0.05;44.86
74921;BME280;63483;47.384;8.860;2024-02-15T02:13:26;95150.38;;;0.10;44.00
74921;BME280;63483;47.384;8.860;2024-02-15T02:15:52;95141.22;;;0.18;47.53
74921;BME280;63483;47.384;8.860;2024-02-15T02:18:18;95147.13;;;0.57;50.98
74921;BME280;63483;47.384;8.860;2024-02-15T02:20:43;95145.78;;;0.78;51.72
74921;BME280;63483;47.384;8.860;2024-02-15T02:23:15;95131.75;;;1.06;51.01
74921;BME280;63483;47.384;8.860;2024-02-15T02:25:42;95131.84;;;1.29;50.28
74921;BME280;63483;47.384;8.860;2024-02-15T02:28:08;95136.31;;;1.51;50.74
74921;BME280;63483;47.384;8.860;2024-02-15T02:30:34;95132.53;;;1.68;50.96
74921;BME280;63483;47.384;8.860;2024-02-15T02:33:00;95124.78;;;1.79;50.78
74921;BME280;63483;47.384;8.860;2024-02-15T02:35:25;95120.34;;;1.92;50.87
74921;BME280;63483;47.384;8.860;2024-02-15T02:37:52;95122.16;;;2.03;50.51
74921;BME280;63483;47.384;8.860;2024-02-15T02:40:20;95122.72;;;2.07;50.29
74921;BME280;63483;47.384;8.860;2024-02-15T02:42:49;95118.75;;;2.14;51.07
74921;BME280;63483;47.384;8.860;2024-02-15T02:45:17;95115.34;;;2.25;51.01
74921;BME280;63483;47.384;8.860;2024-02-15T02:47:48;95108.66;;;2.34;50.84
74921;BME280;63483;47.384;8.860;2024-02-15T02:50:13;95109.81;;;2.41;50.28
74921;BME280;63483;47.384;8.860;2024-02-15T02:52:39;95111.00;;;2.48;50.42
74921;BME280;63483;47.384;8.860;2024-02-15T02:55:05;95110.53;;;2.54;49.87
74921;BME280;63483;47.384;8.860;2024-02-15T02:57:37;95108.63;;;2.56;50.66
74921;BME280;63483;47.384;8.860;2024-02-15T03:00:06;95104.88;;;2.60;50.74
74921;BME280;63483;47.384;8.860;2024-02-15T03:02:38;95100.31;;;2.64;50.37
74921;BME280;63483;47.384;8.860;2024-02-15T03:05:04;95100.88;;;2.67;49.91
74921;BME280;63483;47.384;8.860;2024-02-15T03:07:34;95096.75;;;2.76;50.13
74921;BME280;63483;47.384;8.860;2024-02-15T03:10:04;95098.28;;;2.79;49.89
74921;BME280;63483;47.384;8.860;2024-02-15T03:12:30;95084.97;;;2.83;50.14
74921;BME280;63483;47.384;8.860;2024-02-15T03:14:55;95089.09;;;2.86;49.62
74921;BME280;63483;47.384;8.860;2024-02-15T03:17:21;95086.38;;;2.88;49.62
74921;BME280;63483;47.384;8.860;2024-02-15T03:19:46;95090.47;;;2.90;49.59
74921;BME280;63483;47.384;8.860;2024-02-15T03:22:14;95090.47;;;2.90;49.64
74921;BME280;63483;47.384;8.860;2024-02-15T03:24:39;95095.66;;;2.90;49.49
74921;BME280;63483;47.384;8.860;2024-02-15T03:27:05;95090.47;;;2.90;49.54
74921;BME280;63483;47.384;8.860;2024-02-15T03:29:30;95089.09;;;2.86;49.42
74921;BME280;63483;47.384;8.860;2024-02-15T03:31:55;95090.72;;;2.87;49.66
74921;BME280;63483;47.384;8.860;2024-02-15T03:34:21;95087.94;;;2.79;49.71
74921;BME280;63483;47.384;8.860;2024-02-15T03:36:47;95085.47;;;2.77;49.98
74921;BME280;63483;47.384;8.860;2024-02-15T03:39:16;95094.72;;;2.80;49.91
74921;BME280;63483;47.384;8.860;2024-02-15T03:41:42;95086.28;;;2.78;49.91
74921;BME280;63483;47.384;8.860;2024-02-15T03:44:07;95091.81;;;2.84;49.82
74921;BME280;63483;47.384;8.860;2024-02-15T03:46:34;95086.63;;;2.84;49.58
74921;BME280;63483;47.384;8.860;2024-02-15T03:48:59;95084.16;;;2.83;49.71
74921;BME280;63483;47.384;8.860;2024-02-15T03:51:25;95083.69;;;2.78;49.63
74921;BME280;63483;47.384;8.860;2024-02-15T03:53:51;95082.28;;;2.85;49.92
74921;BME280;63483;47.384;8.860;2024-02-15T03:56:18;95083.06;;;2.85;49.64
74921;BME280;63483;47.384;8.860;2024-02-15T03:58:44;95082.28;;;2.85;49.83
74921;BME280;63483;47.384;8.860;2024-02-15T04:01:10;95087.44;;;2.85;49.48
74921;BME280;63483;47.384;8.860;2024-02-15T04:03:36;95081.56;;;2.83;49.54
74921;BME280;63483;47.384;8.860;2024-02-15T04:06:01;95085.53;;;2.87;49.71
74921;BME280;63483;47.384;8.860;2024-02-15T04:08:27;95086.94;;;2.91;49.30
74921;BME280;63483;47.384;8.860;2024-02-15T04:10:52;95085.06;;;2.93;49.37
74921;BME280;63483;47.384;8.860;2024-02-15T04:13:18;95090.81;;;2.97;49.16
74921;BME280;63483;47.384;8.860;2024-02-15T04:15:44;95085.66;;;2.97;49.05
74921;BME280;63483;47.384;8.860;2024-02-15T04:18:12;95083.06;;;2.97;49.23
74921;BME280;63483;47.384;8.860;2024-02-15T04:20:37;95076.09;;;2.97;48.90
74921;BME280;63483;47.384;8.860;2024-02-15T04:23:03;95077.88;;;2.97;48.71
74921;BME280;63483;47.384;8.860;2024-02-15T04:25:30;95074.50;;;2.96;48.84
74921;BME280;63483;47.384;8.860;2024-02-15T04:27:56;95077.19;;;2.95;48.69
74921;BME280;63483;47.384;8.860;2024-02-15T04:30:23;95078.25;;;2.92;48.57
74921;BME280;63483;47.384;8.860;2024-02-15T04:32:48;95073.31;;;2.89;48.52
74921;BME280;63483;47.384;8.860;2024-02-15T04:35:14;95075.06;;;2.89;48.52
74921;BME280;63483;47.384;8.860;2024-02-15T04:37:39;95081.22;;;2.88;48.57
74921;BME280;63483;47.384;8.860;2024-02-15T04:40:06;95078.78;;;2.63;49.67
74921;BME280;63483;47.384;8.860;2024-02-15T04:42:38;95078.22;;;1.45;44.10
74921;BME280;63483;47.384;8.860;2024-02-15T04:45:09;95077.19;;;0.75;45.57
74921;BME280;63483;47.384;8.860;2024-02-15T04:47:36;95075.25;;;0.16;45.80
74921;BME280;63483;47.384;8.860;2024-02-15T04:50:02;95075.28;;;-0.23;46.81
74921;BME280;63483;47.384;8.860;2024-02-15T04:52:28;95070.13;;;-0.36;48.11
74921;BME280;63483;47.384;8.860;2024-02-15T04:54:54;95071.28;;;-0.40;49.03
74921;BME280;63483;47.384;8.860;2024-02-15T04:57:20;95067.66;;;-0.37;48.74
74921;BME280;63483;47.384;8.860;2024-02-15T04:59:45;95076.53;;;-0.41;48.38
74921;BME280;63483;47.384;8.860;2024-02-15T05:02:13;95070.41;;;-0.40;48.21
74921;BME280;63483;47.384;8.860;2024-02-15T05:04:38;95074.13;;;-0.44;47.88
74921;BME280;63483;47.384;8.860;2024-02-15T05:07:07;95073.13;;;-0.16;51.01
74921;BME280;63483;47.384;8.860;2024-02-15T05:09:33;95069.72;;;0.09;49.47
74921;BME280;63483;47.384;8.860;2024-02-15T05:12:00;95065.97;;;0.26;48.50
74921;BME280;63483;47.384;8.860;2024-02-15T05:14:27;95065.06;;;0.14;46.32
74921;BME280;63483;47.384;8.860;2024-02-15T05:16:52;95069.50;;;0.12;46.65
74921;BME280;63483;47.384;8.860;2024-02-15T05:19:18;95055.88;;;0.10;46.33
74921;BME280;63483;47.384;8.860;2024-02-15T05:21:45;95063.50;;;0.12;44.78
74921;BME280;63483;47.384;8.860;2024-02-15T05:24:15;95061.88;;;0.11;42.65
74921;BME280;63483;47.384;8.860;2024-02-15T05:26:44;95062.00;;;0.09;43.74
74921;BME280;63483;47.384;8.860;2024-02-15T05:29:13;95062.06;;;0.20;45.61
74921;BME280;63483;47.384;8.860;2024-02-15T05:31:39;95065.53;;;0.45;49.66
74921;BME280;63483;47.384;8.860;2024-02-15T05:34:06;95057.91;;;0.68;50.49
74921;BME280;63483;47.384;8.860;2024-02-15T05:36:37;95061.84;;;0.24;57.69
74921;BME280;63483;47.384;8.860;2024-02-15T05:39:03;95057.78;;;-0.30;49.61
74921;BME280;63483;47.384;8.860;2024-02-15T05:41:28;95057.28;;;-0.89;47.71
74921;BME280;63483;47.384;8.860;2024-02-15T05:43:54;95058.88;;;-1.28;47.87
74921;BME280;63483;47.384;8.860;2024-02-15T05:46:20;95054.91;;;-1.61;48.66
74921;BME280;63483;47.384;8.860;2024-02-15T05:48:48;95064.13;;;-1.85;49.46
74921;BME280;63483;47.384;8.860;2024-02-15T05:51:14;95058.97;;;-2.00;49.45
74921;BME280;63483;47.384;8.860;2024-02-15T05:53:40;95057.06;;;-2.11;49.06
74921;BME280;63483;47.384;8.860;2024-02-15T05:56:07;95055.16;;;-2.21;48.52
74921;BME280;63483;47.384;8.860;2024-02-15T05:58:32;95055.72;;;-2.31;48.53
74921;BME280;63483;47.384;8.860;2024-02-15T06:00:59;95057.53;;;-2.33;48.51
74921;BME280;63483;47.384;8.860;2024-02-15T06:03:30;95051.66;;;-2.35;48.86
74921;BME280;63483;47.384;8.860;2024-02-15T06:05:57;95054.78;;;-2.15;49.40
74921;BME280;63483;47.384;8.860;2024-02-15T06:08:27;95059.91;;;-2.15;49.19
74921;BME280;63483;47.384;8.860;2024-02-15T06:10:53;95043.88;;;-2.19;45.94
74921;BME280;63483;47.384;8.860;2024-02-15T06:13:19;95051.31;;;-2.14;47.04
74921;BME280;63483;47.384;8.860;2024-02-15T06:15:45;95048.53;;;-2.26;46.20
74921;BME280;63483;47.384;8.860;2024-02-15T06:18:14;95051.22;;;-2.27;45.56
74921;BME280;63483;47.384;8.860;2024-02-15T06:20:41;95048.91;;;-2.32;45.30
74921;BME280;63483;47.384;8.860;2024-02-15T06:23:08;95046.19;;;-2.14;45.03
74921;BME280;63483;47.384;8.860;2024-02-15T06:25:34;95043.94;;;-1.77;47.29
74921;BME280;63483;47.384;8.860;2024-02-15T06:28:00;95037.91;;;-1.22;51.17
74921;BME280;63483;47.384;8.860;2024-02-15T06:30:28;95047.75;;;-0.74;52.39
74921;BME280;63483;47.384;8.860;2024-02-15T06:33:12;95047.91;;;-0.37;51.89
74921;BME280;63483;47.384;8.860;2024-02-15T06:36:07;95046.97;;;-0.10;51.81
74921;BME280;63483;47.384;8.860;2024-02-15T06:38:50;95043.75;;;0.12;51.95
74921;BME280;63483;47.384;8.860;2024-02-15T06:41:34;95038.03;;;0.33;52.50
74921;BME280;63483;47.384;8.860;2024-02-15T06:44:00;95041.19;;;0.49;52.75
74921;BME280;63483;47.384;8.860;2024-02-15T06:46:26;95036.81;;;0.63;52.21
74921;BME280;63483;47.384;8.860;2024-02-15T06:48:51;95037.59;;;0.76;52.60
74921;BME280;63483;47.384;8.860;2024-02-15T06:51:18;95036.00;;;0.86;52.01
74921;BME280;63483;47.384;8.860;2024-02-15T06:53:44;95032.75;;;0.96;51.61
74921;BME280;63483;47.384;8.860;2024-02-15T06:56:09;95038.25;;;1.02;51.11
74921;BME280;63483;47.384;8.860;2024-02-15T06:58:36;95033.38;;;1.11;51.50
74921;BME280;63483;47.384;8.860;2024-02-15T07:01:01;95038.81;;;1.19;51.78
74921;BME280;63483;47.384;8.860;2024-02-15T07:03:28;95040.81;;;1.26;50.99
74921;BME280;63483;47.384;8.860;2024-02-15T07:05:55;95043.66;;;1.35;51.55
74921;BME280;63483;47.384;8.860;2024-02-15T07:08:21;95046.72;;;1.40;51.41
74921;BME280;63483;47.384;8.860;2024-02-15T07:10:50;95047.41;;;1.31;51.12
74921;BME280;63483;47.384;8.860;2024-02-15T07:13:17;95052.09;;;0.53;44.07
74921;BME280;63483;47.384;8.860;2024-02-15T07:15:43;95048.09;;;-0.01;42.72
74921;BME280;63483;47.384;8.860;2024-02-15T07:18:09;95052.63;;;-0.43;41.91
74921;BME280;63483;47.384;8.860;2024-02-15T07:20:35;95050.03;;;-0.69;44.03
74921;BME280;63483;47.384;8.860;2024-02-15T07:23:01;95054.88;;;-0.52;48.47
74921;BME280;63483;47.384;8.860;2024-02-15T07:25:26;95050.56;;;-0.38;56.46
74921;BME280;63483;47.384;8.860;2024-02-15T07:27:51;95047.38;;;-0.95;53.21
74921;BME280;63483;47.384;8.860;2024-02-15T07:30:19;95051.94;;;-1.40;49.97
74921;BME280;63483;47.384;8.860;2024-02-15T07:32:44;95043.94;;;-1.77;50.09
74921;BME280;63483;47.384;8.860;2024-02-15T07:35:10;95043.59;;;-2.00;50.47
74921;BME280;63483;47.384;8.860;2024-02-15T07:37:35;95042.59;;;-2.26;50.84
74921;BME280;63483;47.384;8.860;2024-02-15T07:40:01;95044.16;;;-2.38;51.02
74921;BME280;63483;47.384;8.860;2024-02-15T07:42:28;95039.13;;;-2.39;51.05
74921;BME280;63483;47.384;8.860;2024-02-15T07:44:54;95036.25;;;-2.49;50.33
74921;BME280;63483;47.384;8.860;2024-02-15T07:47:20;95032.97;;;-2.51;50.72
74921;BME280;63483;47.384;8.860;2024-02-15T07:49:49;95030.31;;;-2.50;50.22
74921;BME280;63483;47.384;8.860;2024-02-15T07:52:14;95027.84;;;-2.51;49.97
74921;BME280;63483;47.384;8.860;2024-02-15T07:54:40;95024.88;;;-2.60;49.25
74921;BME280;63483;47.384;8.860;2024-02-15T07:57:05;95021.59;;;-2.62;49.10
74921;BME280;63483;47.384;8.860;2024-02-15T07:59:30;95018.56;;;-2.54;50.38
74921;BME280;63483;47.384;8.860;2024-02-15T08:01:56;95010.41;;;-2.46;49.28
74921;BME280;63483;47.384;8.860;2024-02-15T08:04:21;95017.56;;;-2.51;48.90
74921;BME280;63483;47.384;8.860;2024-02-15T08:06:48;95011.72;;;-2.39;49.90
74921;BME280;63483;47.384;8.860;2024-02-15T08:09:15;95006.31;;;-2.20;50.29
74921;BME280;63483;47.384;8.860;2024-02-15T08:11:43;95001.78;;;-1.87;50.42
74921;BME280;63483;47.384;8.860;2024-02-15T08:14:08;94998.84;;;-1.54;48.29
74921;BME280;63483;47.384;8.860;2024-02-15T08:16:36;95003.69;;;-1.22;46.33
74921;BME280;63483;47.384;8.860;2024-02-15T08:19:02;94999.25;;;-0.93;48.48
74921;BME280;63483;47.384;8.860;2024-02-15T08:21:31;94992.91;;;-0.48;52.32
74921;BME280;63483;47.384;8.860;2024-02-15T08:24:04;94982.47;;;-0.08;54.15
74921;BME280;63483;47.384;8.860;2024-02-15T08:26:38;94978.88;;;-0.19;60.13
74921;BME280;63483;47.384;8.860;2024-02-15T08:29:05;94972.13;;;-0.84;55.71
74921;BME280;63483;47.384;8.860;2024-02-15T08:31:31;94971.38;;;-1.26;53.42
74921;BME280;63483;47.384;8.860;2024-02-15T08:33:57;94960.94;;;-1.50;53.07
74921;BME280;63483;47.384;8.860;2024-02-15T08:36:23;94960.97;;;-1.65;53.43
74921;BME280;63483;47.384;8.860;2024-02-15T08:38:49;94955.59;;;-1.75;53.10
74921;BME280;63483;47.384;8.860;2024-02-15T08:41:15;94944.69;;;-1.78;53.98
74921;BME280;63483;47.384;8.860;2024-02-15T08:43:42;94939.38;;;-1.75;54.46
74921;BME280;63483;47.384;8.860;2024-02-15T08:46:07;94947.81;;;-1.73;54.22
74921;BME280;63483;47.384;8.860;2024-02-15T08:48:33;94931.63;;;-1.61;54.48
74921;BME280;63483;47.384;8.860;2024-02-15T08:50:58;94927.09;;;-1.57;53.43
74921;BME280;63483;47.384;8.860;2024-02-15T08:53:23;94916.25;;;-1.48;53.42
74921;BME280;63483;47.384;8.860;2024-02-15T08:55:49;94919.63;;;-1.47;53.52
74921;BME280;63483;47.384;8.860;2024-02-15T08:58:15;94920.03;;;-1.41;52.78
74921;BME280;63483;47.384;8.860;2024-02-15T09:00:40;94913.75;;;-1.49;52.12
74921;BME280;63483;47.384;8.860;2024-02-15T09:03:13;94905.34;;;-1.51;53.29
74921;BME280;63483;47.384;8.860;2024-02-15T09:05:39;94901.03;;;-1.38;53.02
74921;BME280;63483;47.384;8.860;2024-02-15T09:08:05;94910.34;;;-1.23;54.26
74921;BME280;63483;47.384;8.860;2024-02-15T09:10:31;94902.91;;;-0.37;57.22
74921;BME280;63483;47.384;8.860;2024-02-15T09:12:56;94892.09;;;0.32;57.27
74921;BME280;63483;47.384;8.860;2024-02-15T09:15:22;94889.47;;;0.91;58.23
74921;BME280;63483;47.384;8.860;2024-02-15T09:17:48;94892.69;;;1.40;58.67
74921;BME280;63483;47.384;8.860;2024-02-15T09:20:15;94886.47;;;1.77;57.45
74921;BME280;63483;47.384;8.860;2024-02-15T09:22:43;94883.94;;;2.09;57.07
74921;BME280;63483;47.384;8.860;2024-02-15T09:25:11;94877.41;;;2.38;56.68
74921;BME280;63483;47.384;8.860;2024-02-15T09:27:38;94891.88;;;2.61;55.55
74921;BME280;63483;47.384;8.860;2024-02-15T09:30:04;94883.75;;;2.87;55.51
74921;BME280;63483;47.384;8.860;2024-02-15T09:32:34;94882.91;;;3.08;55.20
74921;BME280;63483;47.384;8.860;2024-02-15T09:35:00;94878.81;;;3.26;54.10
74921;BME280;63483;47.384;8.860;2024-02-15T09:37:25;94875.66;;;3.44;53.43
74921;BME280;63483;47.384;8.860;2024-02-15T09:39:53;94870.53;;;3.63;52.54
74921;BME280;63483;47.384;8.860;2024-02-15T09:42:18;94862.81;;;3.83;52.34
74921;BME280;63483;47.384;8.860;2024-02-15T09:44:43;94865.72;;;3.99;51.55
74921;BME280;63483;47.384;8.860;2024-02-15T09:47:11;94865.06;;;4.17;51.25
74921;BME280;63483;47.384;8.860;2024-02-15T09:49:38;94854.59;;;4.28;51.37
74921;BME280;63483;47.384;8.860;2024-02-15T09:52:06;94858.13;;;4.47;50.34
74921;BME280;63483;47.384;8.860;2024-02-15T09:54:32;94852.38;;;4.63;49.58
74921;BME280;63483;47.384;8.860;2024-02-15T09:57:01;94848.81;;;4.73;49.81
74921;BME280;63483;47.384;8.860;2024-02-15T09:59:26;94842.53;;;4.86;49.81
74921;BME280;63483;47.384;8.860;2024-02-15T10:01:56;94845.69;;;4.99;50.44
74921;BME280;63483;47.384;8.860;2024-02-15T10:04:23;94847.44;;;5.08;50.11
74921;BME280;63483;47.384;8.860;2024-02-15T10:06:50;94845.63;;;5.19;50.07
74921;BME280;63483;47.384;8.860;2024-02-15T10:09:28;94843.81;;;5.29;49.62
74921;BME280;63483;47.384;8.860;2024-02-15T10:11:55;94841.03;;;5.40;49.76
74921;BME280;63483;47.384;8.860;2024-02-15T10:14:22;94850.09;;;5.36;49.70
74921;BME280;63483;47.384;8.860;2024-02-15T10:16:47;94848.53;;;5.06;51.30
74921;BME280;63483;47.384;8.860;2024-02-15T10:19:13;94849.25;;;5.36;51.06
74921;BME280;63483;47.384;8.860;2024-02-15T10:21:40;94843.56;;;5.60;50.75
74921;BME280;63483;47.384;8.860;2024-02-15T10:24:06;94843.75;;;5.76;50.41
74921;BME280;63483;47.384;8.860;2024-02-15T10:26:33;94833.38;;;5.94;49.80
74921;BME280;63483;47.384;8.860;2024-02-15T10:29:06;94842.16;;;6.11;47.61
74921;BME280;63483;47.384;8.860;2024-02-15T10:31:35;94835.84;;;6.32;48.61
74921;BME280;63483;47.384;8.860;2024-02-15T10:34:05;94842.69;;;6.33;48.36
74921;BME280;63483;47.384;8.860;2024-02-15T10:36:31;94838.75;;;6.65;47.08
74921;BME280;63483;47.384;8.860;2024-02-15T10:39:16;94835.63;;;6.79;46.45
74921;BME280;63483;47.384;8.860;2024-02-15T10:41:51;94825.16;;;6.97;46.30
74921;BME280;63483;47.384;8.860;2024-02-15T10:44:22;94827.28;;;6.94;45.96
74921;BME280;63483;47.384;8.860;2024-02-15T10:46:50;94832.47;;;6.94;46.08
74921;BME280;63483;47.384;8.860;2024-02-15T10:49:19;94840.69;;;7.07;46.94
74921;BME280;63483;47.384;8.860;2024-02-15T10:51:50;94836.22;;;7.17;44.58
74921;BME280;63483;47.384;8.860;2024-02-15T10:54:25;94844.38;;;7.22;44.75
74921;BME280;63483;47.384;8.860;2024-02-15T10:56:56;94830.78;;;7.37;45.20
74921;BME280;63483;47.384;8.860;2024-02-15T10:59:32;94832.63;;;7.18;45.30
74921;BME280;63483;47.384;8.860;2024-02-15T11:01:59;94822.69;;;7.14;44.84
74921;BME280;63483;47.384;8.860;2024-02-15T11:04:27;94819.97;;;7.23;44.57
74921;BME280;63483;47.384;8.860;2024-02-15T11:06:58;94810.72;;;7.64;44.88
74921;BME280;63483;47.384;8.860;2024-02-15T11:09:23;94811.72;;;7.71;44.55
74921;BME280;63483;47.384;8.860;2024-02-15T11:11:50;94809.59;;;7.66;44.14
74921;BME280;63483;47.384;8.860;2024-02-15T11:16:48;94798.44;;;7.99;43.70
74921;BME280;63483;47.384;8.860;2024-02-15T11:19:40;94792.94;;;8.18;43.27
74921;BME280;63483;47.384;8.860;2024-02-15T11:22:14;94794.25;;;8.22;43.50
74921;BME280;63483;47.384;8.860;2024-02-15T11:24:58;94791.94;;;8.27;43.08
74921;BME280;63483;47.384;8.860;2024-02-15T11:27:26;94794.91;;;8.33;43.02
74921;BME280;63483;47.384;8.860;2024-02-15T11:35:08;94786.44;;;8.55;42.85
74921;BME280;63483;47.384;8.860;2024-02-15T11:42:49;94771.75;;;8.71;42.94
74921;BME280;63483;47.384;8.860;2024-02-15T11:45:16;94772.25;;;8.83;42.87
74921;BME280;63483;47.384;8.860;2024-02-15T11:47:47;94767.34;;;8.88;42.44
74921;BME280;63483;47.384;8.860;2024-02-15T11:50:16;94772.84;;;9.01;42.43
74921;BME280;63483;47.384;8.860;2024-02-15T11:52:43;94772.38;;;8.97;43.18
74921;BME280;63483;47.384;8.860;2024-02-15T11:55:10;94771.75;;;8.79;42.80
74921;BME280;63483;47.384;8.860;2024-02-15T11:57:40;94766.81;;;9.01;43.61
74921;BME280;63483;47.384;8.860;2024-02-15T12:00:23;94771.03;;;9.10;43.40
74921;BME280;63483;47.384;8.860;2024-02-15T12:03:08;94760.41;;;9.20;42.18
74921;BME280;63483;47.384;8.860;2024-02-15T12:05:54;94769.69;;;9.22;42.27
74921;BME280;63483;47.384;8.860;2024-02-15T12:08:38;94772.31;;;9.22;41.82
74921;BME280;63483;47.384;8.860;2024-02-15T12:11:22;94766.28;;;9.22;42.53
74921;BME280;63483;47.384;8.860;2024-02-15T12:14:06;94765.09;;;9.32;43.45
74921;BME280;63483;47.384;8.860;2024-02-15T12:17:03;94760.81;;;9.40;43.53
74921;BME280;63483;47.384;8.860;2024-02-15T12:19:49;94759.78;;;9.49;43.15
74921;BME280;63483;47.384;8.860;2024-02-15T12:22:18;94768.75;;;9.55;42.53
74921;BME280;63483;47.384;8.860;2024-02-15T12:24:52;94761.69;;;9.63;41.96
74921;BME280;63483;47.384;8.860;2024-02-15T12:27:17;94755.78;;;9.69;42.03
74921;BME280;63483;47.384;8.860;2024-02-15T12:29:42;94756.09;;;9.75;42.22
74921;BME280;63483;47.384;8.860;2024-02-15T12:32:08;94747.75;;;9.71;42.49
74921;BME280;63483;47.384;8.860;2024-02-15T12:34:33;94727.66;;;9.72;42.13
74921;BME280;63483;47.384;8.860;2024-02-15T12:37:05;94728.91;;;9.76;42.14
74921;BME280;63483;47.384;8.860;2024-02-15T12:39:33;94730.91;;;9.74;42.05
74921;BME280;63483;47.384;8.860;2024-02-15T12:41:59;94734.16;;;9.76;41.95
74921;BME280;63483;47.384;8.860;2024-02-15T12:44:25;94728.59;;;9.79;42.20
74921;BME280;63483;47.384;8.860;2024-02-15T12:46:55;94723.38;;;9.79;41.50
74921;BME280;63483;47.384;8.860;2024-02-15T12:51:52;94716.97;;;9.81;41.66
74921;BME280;63483;47.384;8.860;2024-02-15T12:54:19;94723.03;;;9.82;42.09
74921;BME280;63483;47.384;8.860;2024-02-15T12:56:46;94708.13;;;9.82;42.41
74921;BME280;63483;47.384;8.860;2024-02-15T12:59:14;94711.28;;;9.78;41.98
74921;BME280;63483;47.384;8.860;2024-02-15T13:01:39;94698.13;;;9.86;41.60
74921;BME280;63483;47.384;8.860;2024-02-15T13:04:04;94696.19;;;9.88;41.86
74921;BME280;63483;47.384;8.860;2024-02-15T13:06:31;94683.03;;;9.96;41.49
74921;BME280;63483;47.384;8.860;2024-02-15T13:09:00;94677.13;;;10.02;41.66
74921;BME280;63483;47.384;8.860;2024-02-15T13:11:25;94678.38;;;10.07;41.79
74921;BME280;63483;47.384;8.860;2024-02-15T13:13:51;94668.84;;;10.14;40.70
74921;BME280;63483;47.384;8.860;2024-02-15T13:16:17;94663.25;;;10.17;41.52
74921;BME280;63483;47.384;8.860;2024-02-15T13:18:42;94664.88;;;10.18;41.08
74921;BME280;63483;47.384;8.860;2024-02-15T13:21:09;94669.41;;;10.24;41.49
74921;BME280;63483;47.384;8.860;2024-02-15T13:23:35;94663.03;;;10.27;41.89
74921;BME280;63483;47.384;8.860;2024-02-15T13:26:01;94664.75;;;10.34;41.52